createdAt,value
2023-03-27T00:02:03.937Z,100.00
2023-03-27T00:04:30.423Z,100.00
2023-03-27T00:06:57.249Z,100.00
2023-03-27T00:09:23.719Z,100.00
2023-03-27T00:11:50.222Z,100.00
2023-03-27T00:14:16.824Z,100.00
2023-03-27T00:16:43.272Z,100.00
2023-03-27T00:19:09.861Z,100.00
2023-03-27T00:21:36.411Z,100.00
2023-03-27T00:24:02.900Z,99.34
2023-03-27T00:26:30.596Z,99.04
2023-03-27T00:28:57.314Z,98.48
2023-03-27T00:31:23.892Z,98.30
2023-03-27T00:33:50.531Z,98.73
2023-03-27T00:36:17.218Z,99.36
2023-03-27T00:38:45.188Z,97.82
2023-03-27T00:41:12.547Z,97.32
2023-03-27T00:43:43.805Z,97.89
2023-03-27T00:46:43.803Z,98.62
2023-03-27T00:49:13.412Z,99.41
2023-03-27T00:51:42.933Z,98.23
2023-03-27T00:54:12.579Z,97.37
2023-03-27T00:56:39.233Z,97.77
2023-03-27T00:59:12.487Z,98.17
2023-03-27T01:01:40.162Z,99.02
2023-03-27T01:04:08.881Z,98.45
2023-03-27T01:06:36.803Z,97.75
2023-03-27T01:09:04.599Z,98.13
2023-03-27T01:11:56.095Z,96.83
2023-03-27T01:14:22.646Z,97.34
2023-03-27T01:17:16.071Z,97.77
2023-03-27T01:19:57.431Z,98.60
2023-03-27T01:22:56.823Z,95.50
2023-03-27T01:25:50.636Z,98.08
2023-03-27T01:28:42.465Z,98.50
2023-03-27T01:31:24.182Z,97.01
2023-03-27T01:34:15.710Z,96.87
2023-03-27T01:37:21.815Z,96.18
2023-03-27T01:40:27.881Z,95.32
2023-03-27T01:43:04.783Z,96.71
2023-03-27T01:45:42.526Z,95.12
2023-03-27T01:48:15.888Z,95.24
2023-03-27T01:50:48.442Z,93.76
2023-03-27T01:53:22.824Z,93.69
2023-03-27T01:56:26.315Z,93.19
2023-03-27T01:59:11.143Z,91.46
2023-03-27T02:01:42.282Z,90.25
2023-03-27T02:04:16.461Z,91.29
2023-03-27T02:06:54.142Z,92.21
2023-03-27T02:09:36.584Z,91.21
2023-03-27T02:12:15.314Z,89.48
2023-03-27T02:14:54.941Z,87.51
2023-03-27T02:17:26.284Z,86.29
2023-03-27T02:20:00.397Z,86.08
2023-03-27T02:22:38.249Z,85.54
2023-03-27T02:25:23.293Z,84.86
2023-03-27T02:27:57.204Z,85.65
2023-03-27T02:30:36.224Z,82.78
2023-03-27T02:33:29.692Z,83.30
2023-03-27T02:36:00.436Z,83.39
2023-03-27T02:38:41.156Z,81.30
2023-03-27T02:41:32.515Z,81.76
2023-03-27T02:44:46.454Z,81.99
2023-03-27T02:47:28.493Z,81.85
2023-03-27T02:49:59.968Z,81.39
2023-03-27T02:52:45.452Z,80.20
2023-03-27T02:55:17.291Z,80.93
2023-03-27T02:57:52.675Z,81.38
2023-03-27T03:00:26.186Z,82.58
2023-03-27T03:03:10.967Z,82.79
2023-03-27T03:05:38.035Z,82.80
2023-03-27T03:08:05.769Z,84.70
2023-03-27T03:10:33.337Z,85.13
2023-03-27T03:12:59.852Z,84.17
2023-03-27T03:15:27.098Z,85.18
2023-03-27T03:17:53.942Z,84.45
2023-03-27T03:20:21.508Z,84.52
2023-03-27T03:22:49.285Z,86.22
2023-03-27T03:25:17.828Z,84.90
2023-03-27T03:27:44.653Z,87.09
2023-03-27T03:30:17.365Z,86.26
2023-03-27T03:32:58.208Z,87.56
2023-03-27T03:35:25.149Z,87.16
2023-03-27T03:37:57.642Z,87.67
2023-03-27T03:40:24.314Z,87.45
2023-03-27T03:42:55.365Z,85.65
2023-03-27T03:45:25.735Z,87.22
2023-03-27T03:47:52.358Z,87.31
2023-03-27T03:50:18.933Z,87.62
2023-03-27T03:52:45.969Z,88.25
2023-03-27T03:55:12.718Z,87.35
2023-03-27T03:57:39.253Z,85.83
2023-03-27T04:00:14.038Z,88.00
2023-03-27T04:02:53.690Z,86.84
2023-03-27T04:05:21.995Z,87.32
2023-03-27T04:07:52.274Z,87.62
2023-03-27T04:10:39.477Z,87.27
2023-03-27T04:13:14.906Z,87.52
2023-03-27T04:15:53.007Z,86.39
2023-03-27T04:18:33.013Z,87.56
2023-03-27T04:21:03.017Z,88.50
2023-03-27T04:23:33.202Z,89.44
2023-03-27T04:26:02.964Z,88.52
2023-03-27T04:28:51.705Z,89.47
2023-03-27T04:31:46.515Z,88.52
2023-03-27T04:34:33.143Z,89.31
2023-03-27T04:37:06.466Z,89.54
2023-03-27T04:39:39.706Z,90.92
2023-03-27T04:42:06.531Z,89.70
2023-03-27T04:44:34.878Z,89.98
2023-03-27T04:47:02.306Z,89.05
2023-03-27T04:49:29.599Z,88.62
2023-03-27T04:52:02.899Z,88.44
2023-03-27T04:54:31.847Z,88.75
2023-03-27T04:57:01.902Z,89.14
2023-03-27T04:59:31.837Z,89.93
2023-03-27T05:02:31.227Z,89.67
2023-03-27T05:05:03.056Z,89.80
2023-03-27T05:07:32.765Z,90.20
2023-03-27T05:10:02.037Z,89.52
2023-03-27T05:12:29.200Z,90.58
2023-03-27T05:15:00.524Z,89.81
2023-03-27T05:17:40.782Z,89.93
2023-03-27T05:20:19.212Z,90.55
2023-03-27T05:22:46.582Z,91.47
2023-03-27T05:25:22.436Z,91.12
2023-03-27T05:27:50.766Z,90.24
2023-03-27T05:30:20.951Z,90.59
2023-03-27T05:32:52.573Z,89.50
2023-03-27T05:35:30.908Z,90.26
2023-03-27T05:37:58.882Z,89.18
2023-03-27T05:40:39.639Z,87.83
2023-03-27T05:43:08.313Z,87.42
2023-03-27T05:45:36.245Z,85.77
2023-03-27T05:48:03.867Z,84.64
2023-03-27T05:50:35.411Z,83.21
2023-03-27T05:53:09.810Z,82.94
2023-03-27T05:55:40.048Z,82.32
2023-03-27T05:58:09.565Z,83.55
2023-03-27T06:00:36.602Z,82.69
2023-03-27T06:03:04.284Z,83.17
2023-03-27T06:06:00.176Z,85.11
2023-03-27T06:08:30.539Z,83.73
2023-03-27T06:10:58.605Z,82.77
2023-03-27T06:13:32.605Z,79.50
2023-03-27T06:16:07.651Z,76.50
2023-03-27T06:18:53.162Z,76.26
2023-03-27T06:21:20.954Z,76.27
2023-03-27T06:23:49.086Z,74.32
2023-03-27T06:26:16.948Z,72.29
2023-03-27T06:28:43.552Z,71.11
2023-03-27T06:31:14.818Z,64.85
2023-03-27T06:33:55.064Z,60.60
2023-03-27T06:36:34.738Z,63.52
2023-03-27T06:39:06.280Z,62.68
2023-03-27T06:41:33.944Z,63.02
2023-03-27T06:44:00.504Z,59.28
2023-03-27T06:46:52.776Z,58.54
2023-03-27T06:49:26.192Z,55.73
2023-03-27T06:51:53.226Z,53.27
2023-03-27T06:54:21.266Z,49.86
2023-03-27T06:56:51.662Z,49.48
2023-03-27T06:59:20.910Z,49.14
2023-03-27T07:01:52.394Z,49.27
2023-03-27T07:04:30.225Z,47.18
2023-03-27T07:07:12.297Z,48.08
2023-03-27T07:09:42.048Z,48.87
2023-03-27T07:12:11.043Z,46.36
2023-03-27T07:14:40.479Z,45.76
2023-03-27T07:17:09.229Z,43.30
2023-03-27T07:19:50.453Z,44.28
2023-03-27T07:22:19.084Z,45.31
2023-03-27T07:24:45.545Z,43.87
2023-03-27T07:27:11.996Z,46.51
2023-03-27T07:29:39.715Z,48.67
2023-03-27T07:32:09.200Z,51.27
2023-03-27T07:34:42.696Z,52.94
2023-03-27T07:37:38.103Z,51.04
2023-03-27T07:40:37.017Z,50.58
2023-03-27T07:43:24.649Z,48.69
2023-03-27T07:45:51.399Z,46.76
2023-03-27T07:48:18.758Z,44.52
2023-03-27T07:50:46.245Z,45.99
2023-03-27T07:53:34.473Z,47.71
2023-03-27T07:56:14.288Z,49.75
2023-03-27T07:58:43.103Z,49.03
2023-03-27T08:01:11.572Z,51.21
2023-03-27T08:03:39.446Z,53.62
2023-03-27T08:06:07.502Z,52.93
2023-03-27T08:08:34.313Z,54.72
2023-03-27T08:11:03.830Z,53.87
2023-03-27T08:13:35.450Z,53.96
2023-03-27T08:16:03.397Z,53.17
2023-03-27T08:18:30.160Z,48.51
2023-03-27T08:20:57.358Z,48.92
2023-03-27T08:23:27.281Z,51.45
2023-03-27T08:26:14.524Z,53.15
2023-03-27T08:28:53.953Z,46.62
2023-03-27T08:31:22.848Z,47.29
2023-03-27T08:33:49.613Z,46.22
2023-03-27T08:36:23.034Z,46.49
2023-03-27T08:38:51.457Z,45.36
2023-03-27T08:41:38.574Z,48.91
2023-03-27T08:44:31.035Z,54.58
2023-03-27T08:47:16.898Z,56.64
2023-03-27T08:49:58.225Z,48.08
2023-03-27T08:52:34.124Z,47.15
2023-03-27T08:55:15.258Z,52.53
2023-03-27T08:57:51.097Z,55.17
2023-03-27T09:00:27.755Z,48.85
2023-03-27T09:03:15.588Z,48.04
2023-03-27T09:05:53.737Z,53.86
2023-03-27T09:08:27.762Z,52.28
2023-03-27T09:11:08.211Z,47.00
2023-03-27T09:13:49.452Z,46.26
2023-03-27T09:16:26.269Z,44.69
2023-03-27T09:19:10.445Z,41.95
2023-03-27T09:21:44.617Z,40.92
2023-03-27T09:24:32.932Z,44.91
2023-03-27T09:27:28.691Z,43.09
2023-03-27T09:30:22.254Z,42.89
2023-03-27T09:33:03.708Z,42.85
2023-03-27T09:35:30.488Z,42.17
2023-03-27T09:38:03.973Z,43.95
2023-03-27T09:40:44.926Z,45.96
2023-03-27T09:43:18.808Z,44.56
2023-03-27T09:45:47.773Z,44.38
2023-03-27T09:48:40.175Z,44.20
2023-03-27T09:51:37.192Z,48.88
2023-03-27T09:54:06.406Z,45.12
2023-03-27T09:56:51.935Z,44.15
2023-03-27T09:59:33.037Z,46.51
2023-03-27T10:02:20.360Z,43.38
2023-03-27T10:05:12.158Z,38.84
2023-03-27T10:07:40.753Z,38.43
2023-03-27T10:10:22.000Z,36.56
2023-03-27T10:13:04.310Z,42.44
2023-03-27T10:15:38.868Z,41.18
2023-03-27T10:18:22.505Z,42.13
2023-03-27T10:20:52.701Z,43.43
2023-03-27T10:23:39.464Z,41.39
2023-03-27T10:26:08.392Z,39.92
2023-03-27T10:28:53.013Z,37.85
2023-03-27T10:31:30.897Z,35.51
2023-03-27T10:34:26.189Z,34.68
2023-03-27T10:37:32.364Z,38.35
2023-03-27T10:40:19.623Z,42.39
2023-03-27T10:42:50.048Z,44.56
2023-03-27T10:45:22.049Z,47.16
2023-03-27T10:47:59.093Z,50.00
2023-03-27T10:50:35.647Z,52.07
2023-03-27T10:53:37.854Z,53.43
2023-03-27T10:56:26.269Z,59.39
2023-03-27T10:59:12.242Z,64.83
2023-03-27T11:01:45.209Z,68.84
2023-03-27T11:04:17.761Z,75.01
2023-03-27T11:06:52.554Z,80.50
2023-03-27T11:09:26.859Z,83.00
2023-03-27T11:12:10.239Z,84.79
2023-03-27T11:14:53.822Z,86.05
2023-03-27T11:17:44.312Z,82.83
2023-03-27T11:20:50.296Z,79.17
2023-03-27T11:23:44.550Z,70.95
2023-03-27T11:26:19.586Z,61.02
2023-03-27T11:28:52.972Z,56.22
2023-03-27T11:31:40.542Z,51.14
2023-03-27T11:34:15.362Z,51.67
2023-03-27T11:36:59.603Z,47.84
2023-03-27T11:39:55.234Z,46.69
2023-03-27T11:42:31.388Z,51.65
2023-03-27T11:44:59.610Z,44.15
2023-03-27T11:47:50.753Z,49.65
2023-03-27T11:50:47.496Z,48.99
2023-03-27T11:53:21.391Z,39.49
2023-03-27T11:56:34.294Z,38.20
2023-03-27T11:59:48.447Z,44.22
2023-03-27T12:02:40.899Z,40.26
2023-03-27T12:05:33.844Z,41.30
2023-03-27T12:08:22.620Z,33.59
2023-03-27T12:10:54.551Z,35.75
2023-03-27T12:14:08.894Z,38.55
2023-03-27T12:17:28.129Z,37.63
2023-03-27T12:20:21.490Z,38.12
2023-03-27T12:23:09.785Z,33.75
2023-03-27T12:25:56.516Z,40.02
2023-03-27T12:29:23.176Z,37.15
2023-03-27T12:32:15.597Z,34.00
2023-03-27T12:35:03.414Z,34.15
2023-03-27T12:37:50.856Z,33.80
2023-03-27T12:40:38.959Z,32.65
2023-03-27T12:43:29.559Z,36.98
2023-03-27T12:46:19.112Z,39.99
2023-03-27T12:49:13.287Z,36.54
2023-03-27T12:52:04.816Z,35.73
2023-03-27T12:55:30.964Z,35.86
2023-03-27T12:57:58.364Z,34.31
2023-03-27T13:01:01.840Z,33.99
2023-03-27T13:03:59.237Z,33.46
2023-03-27T13:06:38.629Z,34.26
2023-03-27T13:09:33.368Z,34.91
2023-03-27T13:12:29.570Z,34.80
2023-03-27T13:15:40.915Z,32.95
2023-03-27T13:18:36.031Z,33.68
2023-03-27T13:21:19.040Z,35.38
2023-03-27T13:24:00.592Z,41.10
2023-03-27T13:26:47.674Z,45.24
2023-03-27T13:29:26.334Z,46.20
2023-03-27T13:31:59.976Z,48.27
2023-03-27T13:34:41.332Z,51.84
2023-03-27T13:37:15.937Z,54.42
2023-03-27T13:39:58.718Z,57.15
2023-03-27T13:42:34.314Z,59.13
2023-03-27T13:45:46.509Z,56.91
2023-03-27T13:49:00.672Z,57.20
2023-03-27T13:51:55.140Z,56.15
2023-03-27T13:54:51.214Z,57.12
2023-03-27T13:57:48.550Z,55.58
2023-03-27T14:00:24.108Z,56.46
2023-03-27T14:03:32.373Z,56.71
2023-03-27T14:06:40.651Z,54.76
2023-03-27T14:09:35.779Z,51.99
2023-03-27T14:12:22.631Z,53.24
2023-03-27T14:15:18.625Z,52.87
2023-03-27T14:18:21.957Z,52.70
2023-03-27T14:21:02.121Z,53.58
2023-03-27T14:23:49.303Z,53.63
2023-03-27T14:26:30.442Z,57.07
2023-03-27T14:29:00.768Z,52.36
2023-03-27T14:31:44.455Z,51.04
2023-03-27T14:34:43.480Z,50.38
2023-03-27T14:37:36.239Z,51.04
2023-03-27T14:40:23.164Z,51.14
2023-03-27T14:42:52.603Z,51.28
2023-03-27T14:45:23.552Z,52.59
2023-03-27T14:47:59.894Z,51.17
2023-03-27T14:50:31.835Z,50.99
2023-03-27T14:52:59.203Z,49.79
2023-03-27T14:55:34.738Z,48.26
2023-03-27T14:58:22.470Z,48.26
2023-03-27T15:00:59.895Z,48.41
2023-03-27T15:03:33.834Z,50.00
2023-03-27T15:06:13.405Z,50.16
2023-03-27T15:08:50.329Z,49.25
2023-03-27T15:11:38.904Z,47.73
2023-03-27T15:14:25.766Z,47.11
2023-03-27T15:16:58.961Z,47.54
2023-03-27T15:19:32.610Z,47.17
2023-03-27T15:22:05.027Z,47.65
2023-03-27T15:24:31.506Z,46.62
2023-03-27T15:27:00.962Z,46.56
2023-03-27T15:30:05.641Z,48.68
2023-03-27T15:32:42.859Z,50.46
2023-03-27T15:35:18.115Z,51.74
2023-03-27T15:37:45.280Z,52.33
2023-03-27T15:40:14.273Z,54.13
2023-03-27T15:42:52.516Z,54.62
2023-03-27T15:45:34.218Z,53.73
2023-03-27T15:48:16.025Z,55.89
2023-03-27T15:51:03.556Z,55.41
2023-03-27T15:53:38.057Z,54.44
2023-03-27T15:56:06.523Z,54.91
2023-03-27T15:59:11.830Z,54.03
2023-03-27T16:01:42.063Z,55.72
2023-03-27T16:04:15.514Z,55.30
2023-03-27T16:06:46.120Z,56.26
2023-03-27T16:09:28.322Z,56.67
2023-03-27T16:11:57.503Z,56.80
2023-03-27T16:14:40.763Z,55.25
2023-03-27T16:17:16.878Z,55.65
2023-03-27T16:20:16.958Z,55.63
2023-03-27T16:22:43.447Z,56.20
2023-03-27T16:25:11.921Z,57.36
2023-03-27T16:27:40.042Z,57.80
2023-03-27T16:30:09.236Z,58.40
2023-03-27T16:32:36.849Z,58.96
2023-03-27T16:35:03.450Z,58.95
2023-03-27T16:37:29.884Z,58.29
2023-03-27T16:39:56.767Z,58.81
2023-03-27T16:42:26.201Z,59.96
2023-03-27T16:44:53.606Z,60.21
2023-03-27T16:47:22.955Z,59.21
2023-03-27T16:50:03.550Z,59.97
2023-03-27T16:52:36.290Z,60.05
2023-03-27T16:55:04.615Z,59.63
2023-03-27T16:57:33.015Z,57.98
2023-03-27T16:59:59.458Z,57.56
2023-03-27T17:02:26.595Z,56.98
2023-03-27T17:04:53.240Z,56.23
2023-03-27T17:07:19.752Z,54.56
2023-03-27T17:09:46.391Z,56.52
2023-03-27T17:12:12.834Z,56.59
2023-03-27T17:14:39.364Z,56.23
2023-03-27T17:17:05.861Z,56.68
2023-03-27T17:19:32.456Z,56.38
2023-03-27T17:21:58.883Z,56.18
2023-03-27T17:24:25.530Z,57.28
2023-03-27T17:26:51.981Z,56.63
2023-03-27T17:29:18.888Z,56.94
2023-03-27T17:31:46.003Z,57.11
2023-03-27T17:34:13.119Z,57.88
2023-03-27T17:36:45.268Z,59.21
2023-03-27T17:39:18.984Z,57.90
2023-03-27T17:41:45.480Z,57.47
2023-03-27T17:44:13.168Z,57.10
2023-03-27T17:46:39.712Z,57.87
2023-03-27T17:49:06.175Z,58.72
2023-03-27T17:51:34.090Z,57.56
2023-03-27T17:54:00.775Z,58.45
2023-03-27T17:56:27.343Z,58.45
2023-03-27T17:58:54.014Z,58.40
2023-03-27T18:01:22.243Z,58.52
2023-03-27T18:03:49.686Z,59.55
2023-03-27T18:06:17.604Z,60.17
2023-03-27T18:08:45.721Z,60.70
2023-03-27T18:11:14.147Z,61.73
2023-03-27T18:13:41.449Z,63.77
2023-03-27T18:16:10.643Z,67.10
2023-03-27T18:18:38.925Z,68.49
2023-03-27T18:21:07.375Z,69.08
2023-03-27T18:23:35.045Z,71.10
2023-03-27T18:26:08.177Z,71.15
2023-03-27T18:28:35.706Z,74.45
2023-03-27T18:31:04.932Z,74.29
2023-03-27T18:33:31.926Z,74.89
2023-03-27T18:35:58.974Z,73.65
2023-03-27T18:38:27.612Z,73.49
2023-03-27T18:40:56.824Z,75.17
2023-03-27T18:43:24.006Z,74.38
2023-03-27T18:46:02.457Z,77.12
2023-03-27T18:48:30.892Z,78.84
2023-03-27T18:50:59.823Z,80.16
2023-03-27T18:53:26.707Z,78.87
2023-03-27T18:55:54.063Z,77.81
2023-03-27T18:58:24.104Z,77.82
2023-03-27T19:00:51.496Z,78.44
2023-03-27T19:03:23.446Z,80.92
2023-03-27T19:05:51.585Z,78.37
2023-03-27T19:08:20.165Z,79.26
2023-03-27T19:10:46.719Z,77.81
2023-03-27T19:13:18.100Z,76.91
2023-03-27T19:16:14.244Z,76.16
2023-03-27T19:19:11.117Z,78.35
2023-03-27T19:21:52.949Z,79.78
2023-03-27T19:24:44.883Z,80.13
2023-03-27T19:27:23.558Z,80.85
2023-03-27T19:29:51.838Z,81.70
2023-03-27T19:32:18.334Z,80.35
2023-03-27T19:34:44.795Z,80.70
2023-03-27T19:37:11.254Z,81.21
2023-03-27T19:39:37.884Z,82.06
2023-03-27T19:42:04.698Z,83.41
2023-03-27T19:44:34.373Z,84.17
2023-03-27T19:47:03.575Z,84.07
2023-03-27T19:49:30.415Z,84.93
2023-03-27T19:52:20.094Z,81.87
2023-03-27T19:54:47.015Z,81.60
2023-03-27T19:57:13.968Z,83.92
2023-03-27T19:59:40.598Z,87.33
2023-03-27T20:02:07.345Z,89.48
2023-03-27T20:04:33.844Z,89.22
2023-03-27T20:07:01.949Z,89.50
2023-03-27T20:09:28.691Z,90.23
2023-03-27T20:11:55.231Z,92.19
2023-03-27T20:14:21.718Z,95.39
2023-03-27T20:16:48.315Z,95.33
2023-03-27T20:19:16.646Z,95.38
2023-03-27T20:21:43.778Z,95.60
2023-03-27T20:24:14.262Z,94.26
2023-03-27T20:26:48.027Z,94.71
2023-03-27T20:29:20.155Z,94.62
2023-03-27T20:31:47.921Z,94.85
2023-03-27T20:34:14.975Z,93.89
2023-03-27T20:36:43.270Z,96.70
2023-03-27T20:39:31.181Z,97.00
2023-03-27T20:41:59.226Z,96.61
2023-03-27T20:44:36.090Z,99.01
2023-03-27T20:47:12.049Z,99.44
2023-03-27T20:49:45.631Z,100.00
2023-03-27T20:52:15.353Z,100.00
2023-03-27T20:54:42.220Z,100.00
2023-03-27T20:57:11.132Z,100.00
2023-03-27T20:59:37.853Z,100.00
2023-03-27T21:02:05.034Z,99.42
2023-03-27T21:04:31.784Z,99.04
2023-03-27T21:06:58.780Z,98.45
2023-03-27T21:09:26.460Z,98.21
2023-03-27T21:11:55.014Z,97.83
2023-03-27T21:14:21.836Z,97.65
2023-03-27T21:16:48.343Z,97.70
2023-03-27T21:19:14.823Z,97.82
2023-03-27T21:21:41.482Z,99.42
2023-03-27T21:24:07.989Z,98.25
2023-03-27T21:26:35.360Z,100.00
2023-03-27T21:29:02.998Z,100.00
2023-03-27T21:31:29.598Z,100.00
2023-03-27T21:33:56.159Z,100.00
2023-03-27T21:36:22.907Z,100.00
2023-03-27T21:38:49.415Z,100.00
2023-03-27T21:41:17.237Z,100.00
2023-03-27T21:43:44.266Z,100.00
2023-03-27T21:46:11.095Z,100.00
2023-03-27T21:48:37.716Z,100.00
2023-03-27T21:51:06.306Z,100.00
2023-03-27T21:53:33.070Z,100.00
2023-03-27T21:55:59.887Z,100.00
2023-03-27T21:58:27.283Z,100.00
2023-03-27T22:00:57.261Z,100.00
2023-03-27T22:03:24.836Z,100.00
2023-03-27T22:06:01.051Z,100.00
2023-03-27T22:08:36.679Z,100.00
2023-03-27T22:11:03.470Z,100.00
2023-03-27T22:13:29.929Z,100.00
2023-03-27T22:15:56.852Z,100.00
2023-03-27T22:18:23.967Z,100.00
2023-03-27T22:20:50.856Z,100.00
2023-03-27T22:23:17.306Z,100.00
2023-03-27T22:25:51.334Z,100.00
2023-03-27T22:28:18.001Z,100.00
2023-03-27T22:30:44.448Z,100.00
2023-03-27T22:33:10.961Z,100.00
2023-03-27T22:35:37.495Z,100.00
2023-03-27T22:38:03.935Z,100.00
2023-03-27T22:40:30.408Z,100.00
2023-03-27T22:42:56.918Z,100.00
2023-03-27T22:45:23.342Z,100.00
2023-03-27T22:47:49.827Z,100.00
2023-03-27T22:50:16.356Z,100.00
2023-03-27T22:52:42.799Z,100.00
2023-03-27T22:55:09.496Z,100.00
2023-03-27T22:57:36.781Z,100.00
2023-03-27T23:00:05.814Z,100.00
2023-03-27T23:02:32.406Z,100.00
2023-03-27T23:04:58.897Z,100.00
2023-03-27T23:07:25.337Z,100.00
2023-03-27T23:09:51.831Z,100.00
2023-03-27T23:12:18.291Z,100.00
2023-03-27T23:14:44.712Z,100.00
2023-03-27T23:17:11.194Z,100.00
2023-03-27T23:19:37.703Z,100.00
2023-03-27T23:22:04.247Z,100.00
2023-03-27T23:24:30.985Z,100.00
2023-03-27T23:26:57.450Z,100.00
2023-03-27T23:29:23.892Z,100.00
2023-03-27T23:31:50.645Z,100.00
2023-03-27T23:34:17.148Z,100.00
2023-03-27T23:36:43.577Z,100.00
2023-03-27T23:39:10.130Z,100.00
2023-03-27T23:41:36.671Z,100.00
2023-03-27T23:44:03.443Z,100.00
2023-03-27T23:46:30.085Z,100.00
2023-03-27T23:48:56.605Z,100.00
2023-03-27T23:51:23.676Z,100.00
2023-03-27T23:53:50.502Z,100.00
2023-03-27T23:56:16.940Z,100.00
2023-03-27T23:58:43.402Z,100.00
